Time;durP1;ratioP1;P1;durP2;ratioP2;P2;SDS_P1;SDS_P2;PMS_P1;PMS_P2;Temp;Humidity;BMP_temperature;BMP_pressure;BME280_temperature;BME280_humidity;BME280_pressure;Samples;Min_cycle;Max_cycle;Signal;HPM_P1;HPM_P2
2022/02/13 00:01:36;;;;;;;13.27;10.33;;;2.70;99.90;;;;;;5050838;28;20706;-56
2022/02/13 00:04:02;;;;;;;13.50;10.32;;;2.70;99.90;;;;;;5050819;28;20171;-51
2022/02/13 00:06:28;;;;;;;14.15;9.73;;;2.60;99.90;;;;;;5047813;28;20732;-57
2022/02/13 00:08:54;;;;;;;10.87;9.67;;;2.60;99.90;;;;;;5050633;28;20217;-59
2022/02/13 00:11:20;;;;;;;14.05;10.45;;;2.60;99.90;;;;;;5050817;28;20197;-59
2022/02/13 00:13:46;;;;;;;11.90;10.27;;;2.60;99.90;;;;;;5050142;28;20221;-59
2022/02/13 00:16:12;;;;;;;12.95;9.57;;;2.60;99.90;;;;;;5050807;28;20190;-59
2022/02/13 00:18:37;;;;;;;13.27;9.67;;;2.50;99.90;;;;;;5050365;28;20178;-61
2022/02/13 00:21:03;;;;;;;16.77;10.53;;;2.50;99.90;;;;;;5050866;28;20178;-57
2022/02/13 00:23:29;;;;;;;11.70;9.90;;;2.50;99.90;;;;;;5049887;28;20253;-58
2022/02/13 00:25:54;;;;;;;13.33;10.67;;;2.50;99.90;;;;;;5050588;28;20428;-59
2022/02/13 00:28:20;;;;;;;14.30;10.33;;;2.50;99.90;;;;;;5050153;28;20229;-58
2022/02/13 00:30:48;;;;;;;13.47;10.03;;;2.50;99.90;;;;;;5049994;28;20268;-56
2022/02/13 00:33:15;;;;;;;12.80;9.85;;;2.40;99.90;;;;;;5052894;28;20174;-60
2022/02/13 00:35:41;;;;;;;10.10;8.48;;;2.30;99.90;;;;;;5058267;28;20174;-59
2022/02/13 00:38:08;;;;;;;11.07;9.55;;;2.30;99.90;;;;;;5048887;28;20178;-58
2022/02/13 00:40:34;;;;;;;11.98;8.95;;;2.30;99.90;;;;;;5049306;28;20304;-58
2022/02/13 00:42:59;;;;;;;10.93;9.13;;;2.20;99.90;;;;;;5047348;28;20185;-58
2022/02/13 00:45:25;;;;;;;10.63;9.33;;;2.20;99.90;;;;;;5050228;28;20655;-58
2022/02/13 00:47:50;;;;;;;14.07;10.40;;;2.20;99.90;;;;;;5049664;28;20213;-58
2022/02/13 00:50:16;;;;;;;15.83;9.63;;;2.20;99.90;;;;;;5050217;28;20174;-58
2022/02/13 00:52:41;;;;;;;9.73;8.70;;;2.20;99.90;;;;;;5046083;28;20308;-56
2022/02/13 00:55:07;;;;;;;13.40;9.50;;;2.20;99.90;;;;;;5049862;28;20179;-55
2022/02/13 00:57:33;;;;;;;12.50;9.82;;;2.20;99.90;;;;;;5049999;28;20228;-58
2022/02/13 00:59:59;;;;;;;11.43;9.33;;;2.20;99.90;;;;;;5049370;28;20277;-59
2022/02/13 01:02:24;;;;;;;15.77;10.67;;;2.20;99.90;;;;;;5048374;28;20679;-58
2022/02/13 01:04:50;;;;;;;14.40;10.87;;;2.10;99.90;;;;;;5052196;28;20210;-52
2022/02/13 01:07:16;;;;;;;12.10;9.77;;;2.10;99.90;;;;;;5069793;28;20419;-56
2022/02/13 01:09:42;;;;;;;14.10;10.30;;;2.00;99.90;;;;;;5068750;28;20206;-54
2022/02/13 01:12:08;;;;;;;20.00;11.70;;;2.00;99.90;;;;;;5056711;28;20281;-52
2022/02/13 01:14:33;;;;;;;14.35;10.32;;;1.90;99.90;;;;;;5063291;28;20459;-57
2022/02/13 01:16:59;;;;;;;13.63;9.63;;;1.90;99.90;;;;;;5060394;28;20190;-57
2022/02/13 01:19:24;;;;;;;13.07;10.00;;;1.90;99.90;;;;;;5046312;28;20194;-60
2022/02/13 01:21:50;;;;;;;15.23;10.63;;;1.90;99.90;;;;;;5054779;28;20584;-60
2022/02/13 01:24:16;;;;;;;13.60;10.23;;;1.90;99.90;;;;;;5049513;28;20201;-54
2022/02/13 01:26:41;;;;;;;15.00;10.53;;;1.80;99.90;;;;;;5060215;28;20186;-57
2022/02/13 01:29:07;;;;;;;12.07;9.93;;;1.90;99.90;;;;;;5058862;28;20198;-58
2022/02/13 01:31:36;;;;;;;15.07;10.10;;;1.80;99.90;;;;;;5060152;28;20594;-58
2022/02/13 01:34:02;;;;;;;14.98;11.65;;;1.80;99.90;;;;;;5059144;28;20277;-57
2022/02/13 01:36:27;;;;;;;12.48;9.02;;;1.90;99.90;;;;;;5054569;28;20617;-59
2022/02/13 01:38:53;;;;;;;12.93;9.50;;;1.90;99.90;;;;;;5065004;28;20189;-58
2022/02/13 01:41:19;;;;;;;11.67;9.83;;;1.90;99.90;;;;;;5051337;28;20572;-57
2022/02/13 01:43:44;;;;;;;11.67;10.10;;;1.80;99.90;;;;;;5065307;28;20190;-60
2022/02/13 01:46:10;;;;;;;12.23;9.97;;;1.80;99.90;;;;;;5048365;28;20734;-59
2022/02/13 01:48:36;;;;;;;12.47;9.57;;;1.80;99.90;;;;;;5066800;28;20206;-59
2022/02/13 01:51:02;;;;;;;12.40;9.57;;;1.70;99.90;;;;;;5050231;28;20185;-58
2022/02/13 01:53:28;;;;;;;13.30;10.30;;;1.70;99.90;;;;;;5065022;28;20271;-56
2022/02/13 01:55:54;;;;;;;11.68;9.80;;;1.60;99.90;;;;;;5053310;28;20198;-59
2022/02/13 01:58:20;;;;;;;18.60;10.17;;;1.60;99.90;;;;;;5052961;28;20615;-58
2022/02/13 02:00:46;;;;;;;12.70;9.87;;;1.50;99.90;;;;;;5073044;28;20188;-57
2022/02/13 02:03:11;;;;;;;11.83;9.83;;;1.50;99.90;;;;;;5051661;28;20467;-59
2022/02/13 02:05:38;;;;;;;14.87;10.70;;;1.50;99.90;;;;;;5056136;28;20189;-60
2022/02/13 02:08:03;;;;;;;14.18;10.38;;;1.50;99.90;;;;;;5060432;28;20240;-58
2022/02/13 02:10:30;;;;;;;11.07;8.83;;;1.50;99.90;;;;;;5061957;28;20189;-59
2022/02/13 02:12:56;;;;;;;14.35;9.82;;;1.40;99.90;;;;;;5053536;28;20625;-59
2022/02/13 02:15:21;;;;;;;12.40;8.47;;;1.50;99.90;;;;;;5052763;28;20193;-59
2022/02/13 02:17:47;;;;;;;11.67;9.57;;;1.40;99.90;;;;;;5066125;28;20548;-58
2022/02/13 02:20:13;;;;;;;13.27;9.23;;;1.50;99.90;;;;;;5058744;28;20186;-59
2022/02/13 02:22:54;;;;;;;12.70;9.85;;;1.40;99.90;;;;;;5059526;28;20976;-59
2022/02/13 02:25:20;;;;;;;16.27;11.15;;;1.40;99.90;;;;;;5055318;28;20177;-57
2022/02/13 02:27:46;;;;;;;14.05;10.40;;;1.50;99.90;;;;;;5063304;28;20205;-58
2022/02/13 02:30:12;;;;;;;13.40;10.20;;;1.40;99.90;;;;;;5055272;28;20614;-59
2022/02/13 02:32:38;;;;;;;12.23;10.25;;;1.50;99.90;;;;;;5053526;28;20193;-59
2022/02/13 02:35:04;;;;;;;12.37;9.50;;;1.40;99.90;;;;;;5055050;28;20269;-58
2022/02/13 02:37:30;;;;;;;12.57;9.85;;;1.40;99.90;;;;;;5072448;28;20499;-57
2022/02/13 02:39:56;;;;;;;13.20;10.60;;;1.40;99.90;;;;;;5072146;28;21029;-58
2022/02/13 02:42:22;;;;;;;12.23;8.90;;;1.40;99.90;;;;;;5056059;28;20185;-57
2022/02/13 02:44:47;;;;;;;12.30;9.60;;;1.40;99.90;;;;;;5051787;28;20646;-60
2022/02/13 02:47:13;;;;;;;11.77;8.70;;;1.40;99.90;;;;;;5051245;28;20189;-54
2022/02/13 02:49:38;;;;;;;12.63;9.10;;;1.30;99.90;;;;;;5069241;28;20190;-58
2022/02/13 02:52:05;;;;;;;12.40;8.73;;;1.30;99.90;;;;;;5071647;28;20185;-53
2022/02/13 02:54:31;;;;;;;12.52;9.30;;;1.20;99.90;;;;;;5062720;28;20240;-57
2022/02/13 02:56:57;;;;;;;11.70;9.23;;;1.30;99.90;;;;;;5062500;28;20178;-59
2022/02/13 02:59:22;;;;;;;13.37;8.97;;;1.20;99.90;;;;;;5053519;28;20534;-57
2022/02/13 03:01:48;;;;;;;12.63;8.30;;;1.20;99.90;;;;;;5051415;28;20678;-59
2022/02/13 03:04:14;;;;;;;12.90;9.33;;;1.20;99.90;;;;;;5051267;28;20269;-58
2022/02/13 03:06:41;;;;;;;13.73;9.30;;;1.10;99.90;;;;;;5052278;28;20181;-57
2022/02/13 03:09:07;;;;;;;13.25;9.57;;;1.20;99.90;;;;;;5049952;28;20221;-58
2022/02/13 03:11:33;;;;;;;15.83;8.90;;;1.20;99.90;;;;;;5050358;28;20948;-57
2022/02/13 03:13:58;;;;;;;11.93;9.23;;;1.10;99.90;;;;;;5051334;28;20415;-57
2022/02/13 03:16:24;;;;;;;11.87;8.53;;;1.10;99.90;;;;;;5051004;28;20186;-58
2022/02/13 03:18:50;;;;;;;11.97;8.80;;;1.10;99.90;;;;;;5050269;28;20298;-52
2022/02/13 03:21:15;;;;;;;9.83;8.77;;;1.10;99.90;;;;;;5050883;28;20162;-59
2022/02/13 03:23:41;;;;;;;13.00;8.60;;;1.10;99.90;;;;;;5050101;28;20212;-58
2022/02/13 03:26:06;;;;;;;11.90;8.83;;;1.10;99.90;;;;;;5051477;28;20170;-58
2022/02/13 03:28:32;;;;;;;13.00;8.90;;;1.10;99.90;;;;;;5050651;28;20205;-49
2022/02/13 03:30:57;;;;;;;12.43;8.63;;;1.10;99.90;;;;;;5051418;28;20209;-57
2022/02/13 03:33:23;;;;;;;13.50;8.77;;;1.10;99.90;;;;;;5050603;28;20171;-59
2022/02/13 03:35:49;;;;;;;11.17;8.53;;;1.10;99.90;;;;;;5050664;28;20481;-55
2022/02/13 03:38:14;;;;;;;11.70;8.67;;;1.10;99.90;;;;;;5050567;28;20205;-55
2022/02/13 03:40:40;;;;;;;13.07;9.50;;;1.10;99.90;;;;;;5050754;28;20166;-58
2022/02/13 03:43:06;;;;;;;11.80;8.65;;;1.10;99.90;;;;;;5050207;28;20179;-58
2022/02/13 03:45:33;;;;;;;12.40;8.68;;;1.00;99.90;;;;;;5055898;28;20187;-59
2022/02/13 03:47:58;;;;;;;12.60;9.27;;;1.10;99.90;;;;;;5070394;28;20224;-59
2022/02/13 03:50:24;;;;;;;12.40;8.83;;;1.10;99.90;;;;;;5050277;28;20686;-58
2022/02/13 03:52:49;;;;;;;12.70;9.83;;;1.00;99.90;;;;;;5057620;28;20237;-57
2022/02/13 03:55:16;;;;;;;11.17;8.70;;;1.10;99.90;;;;;;5069362;28;20227;-59
2022/02/13 03:57:42;;;;;;;13.68;9.55;;;1.10;99.90;;;;;;5050034;28;20178;-56
2022/02/13 04:00:08;;;;;;;11.70;8.52;;;1.00;99.90;;;;;;5050744;28;20220;-49
2022/02/13 04:02:34;;;;;;;12.98;9.65;;;1.00;99.90;;;;;;5050860;28;20171;-60
2022/02/13 04:05:00;;;;;;;13.90;9.80;;;1.00;99.90;;;;;;5049927;28;20208;-57
2022/02/13 04:07:28;;;;;;;12.37;8.93;;;1.00;99.90;;;;;;5050683;28;20551;-56
2022/02/13 04:09:55;;;;;;;13.15;9.45;;;1.00;99.90;;;;;;5050800;28;20159;-58
2022/02/13 04:12:20;;;;;;;13.82;10.00;;;1.00;99.90;;;;;;5050850;28;20170;-55
2022/02/13 04:14:46;;;;;;;16.60;10.17;;;0.90;99.90;;;;;;5049800;28;20637;-57
2022/02/13 04:17:11;;;;;;;13.33;9.80;;;0.90;99.90;;;;;;5050289;28;20190;-58
2022/02/13 04:19:37;;;;;;;13.37;9.37;;;0.90;99.90;;;;;;5049808;28;20292;-59
2022/02/13 04:22:03;;;;;;;11.43;9.10;;;0.90;99.90;;;;;;5050345;28;20253;-59
2022/02/13 04:24:28;;;;;;;12.80;9.57;;;0.80;99.90;;;;;;5050566;28;20245;-58
2022/02/13 04:26:54;;;;;;;15.13;9.70;;;0.80;99.90;;;;;;5050385;28;20470;-58
2022/02/13 04:29:20;;;;;;;13.17;8.57;;;0.80;99.90;;;;;;5049693;28;20191;-56
2022/02/13 04:31:46;;;;;;;11.73;9.50;;;0.80;99.90;;;;;;5050770;28;20159;-55
2022/02/13 04:34:12;;;;;;;14.77;10.00;;;0.80;99.90;;;;;;5049724;28;20642;-58
2022/02/13 04:36:37;;;;;;;13.68;9.95;;;0.80;99.90;;;;;;5050060;28;20165;-56
2022/02/13 04:39:05;;;;;;;11.73;9.37;;;0.80;99.90;;;;;;5049836;28;20641;-55
2022/02/13 04:41:30;;;;;;;13.75;9.80;;;0.70;99.90;;;;;;5049493;28;20715;-57
2022/02/13 04:43:56;;;;;;;11.00;9.20;;;0.70;99.90;;;;;;5050847;28;20162;-57
2022/02/13 04:46:22;;;;;;;12.00;9.60;;;0.70;99.90;;;;;;5060862;28;20284;-57
2022/02/13 04:48:48;;;;;;;13.00;9.37;;;0.70;99.90;;;;;;5068060;28;20214;-59
2022/02/13 04:51:13;;;;;;;16.43;10.47;;;0.70;99.90;;;;;;5051422;28;20451;-57
2022/02/13 04:53:39;;;;;;;14.23;10.10;;;0.60;99.90;;;;;;5049480;28;20226;-58
2022/02/13 04:56:04;;;;;;;13.23;10.33;;;0.60;99.90;;;;;;5067405;28;20664;-53
2022/02/13 04:58:32;;;;;;;14.40;10.40;;;0.60;99.90;;;;;;5064568;28;20226;-53
2022/02/13 05:00:58;;;;;;;13.35;10.13;;;0.60;99.90;;;;;;5063261;28;20236;-54
2022/02/13 05:03:24;;;;;;;15.07;10.47;;;0.60;99.90;;;;;;5060847;28;20193;-56
2022/02/13 05:05:51;;;;;;;15.88;11.52;;;0.70;99.90;;;;;;5041527;28;20591;-57
2022/02/13 05:08:17;;;;;;;13.70;10.43;;;0.60;99.90;;;;;;5058753;28;20203;-58
2022/02/13 05:10:43;;;;;;;14.00;10.53;;;0.60;99.90;;;;;;5045775;28;20186;-58
2022/02/13 05:13:08;;;;;;;14.00;10.27;;;0.60;99.90;;;;;;5059187;28;20490;-59
2022/02/13 05:15:34;;;;;;;17.50;11.20;;;0.60;99.90;;;;;;5053965;28;20178;-57
2022/02/13 05:17:59;;;;;;;15.30;10.77;;;0.60;99.90;;;;;;5051430;28;20213;-59
2022/02/13 05:20:25;;;;;;;16.70;11.13;;;0.60;99.90;;;;;;5049434;28;20189;-59
2022/02/13 05:22:50;;;;;;;18.40;12.17;;;0.50;99.90;;;;;;5069814;28;20209;-55
2022/02/13 05:25:16;;;;;;;14.63;11.17;;;0.50;99.90;;;;;;5069860;28;20654;-57
2022/02/13 05:27:41;;;;;;;18.00;12.43;;;0.50;99.90;;;;;;5063746;28;20174;-59
2022/02/13 05:30:08;;;;;;;19.23;11.70;;;0.40;99.90;;;;;;5049605;28;20186;-58
2022/02/13 05:32:33;;;;;;;17.30;12.05;;;0.40;99.90;;;;;;5050624;28;21011;-57
2022/02/13 05:34:59;;;;;;;17.20;11.20;;;0.30;99.90;;;;;;5052759;28;20205;-58
2022/02/13 05:37:24;;;;;;;16.00;11.13;;;0.30;99.90;;;;;;5052831;28;20178;-59
2022/02/13 05:39:50;;;;;;;15.90;11.73;;;0.30;99.90;;;;;;5053620;28;20766;-57
2022/02/13 05:42:15;;;;;;;17.30;11.70;;;0.30;99.90;;;;;;5052539;28;20228;-59
2022/02/13 05:44:41;;;;;;;15.10;11.87;;;0.20;99.90;;;;;;5044750;28;20173;-60
2022/02/13 05:47:07;;;;;;;17.20;11.30;;;0.20;99.90;;;;;;5051326;28;20177;-58
2022/02/13 05:49:33;;;;;;;17.63;12.20;;;0.10;99.90;;;;;;5052980;28;20633;-56
2022/02/13 05:51:59;;;;;;;16.08;10.85;;;0.10;99.90;;;;;;5052673;28;20273;-59
2022/02/13 05:54:24;;;;;;;14.90;10.67;;;0.10;99.90;;;;;;5053534;28;20992;-58
2022/02/13 05:56:50;;;;;;;17.40;12.20;;;0.10;99.90;;;;;;5052693;28;20181;-60
2022/02/13 05:59:15;;;;;;;15.00;11.23;;;0.10;99.90;;;;;;5053164;28;20252;-58
2022/02/13 06:01:41;;;;;;;13.33;10.77;;;0.10;99.90;;;;;;5051770;28;20253;-58
2022/02/13 06:04:08;;;;;;;15.27;11.68;;;0.10;99.90;;;;;;5053433;28;20224;-59
2022/02/13 06:06:34;;;;;;;15.93;11.10;;;0.10;99.90;;;;;;5052383;28;20186;-57
2022/02/13 06:08:59;;;;;;;15.30;10.70;;;0.10;99.90;;;;;;5053106;28;20197;-59
2022/02/13 06:11:25;;;;;;;14.60;10.83;;;0.20;99.90;;;;;;5051365;28;20705;-57
2022/02/13 06:13:50;;;;;;;15.13;10.50;;;0.30;99.90;;;;;;5053048;28;20186;-60
2022/02/13 06:16:16;;;;;;;15.10;10.40;;;0.30;99.90;;;;;;5052800;28;20254;-61
2022/02/13 06:18:41;;;;;;;15.43;11.00;;;0.30;99.90;;;;;;5054385;28;20205;-59
2022/02/13 06:21:07;;;;;;;15.47;10.33;;;0.30;99.90;;;;;;5057329;28;20196;-60
2022/02/13 06:23:32;;;;;;;15.03;10.70;;;0.40;99.90;;;;;;5068804;28;20257;-58
2022/02/13 06:25:58;;;;;;;12.77;8.80;;;0.50;99.90;;;;;;5066729;28;20261;-58
2022/02/13 06:28:24;;;;;;;11.87;9.27;;;0.40;99.90;;;;;;5052459;28;20190;-59
2022/02/13 06:30:51;;;;;;;12.23;9.30;;;0.50;99.90;;;;;;5052481;28;20182;-57
2022/02/13 06:33:17;;;;;;;14.13;10.65;;;0.50;99.90;;;;;;5050203;28;20221;-58
2022/02/13 06:35:42;;;;;;;12.50;9.33;;;0.50;99.90;;;;;;5061949;28;20668;-64
2022/02/13 06:38:12;;;;;;;14.57;10.00;;;0.50;99.90;;;;;;5051523;28;20472;-60
2022/02/13 06:40:39;;;;;;;13.27;9.48;;;0.60;99.90;;;;;;5071994;28;20845;-58
2022/02/13 06:43:04;;;;;;;14.30;9.82;;;0.50;99.90;;;;;;5070862;28;20186;-57
2022/02/13 06:45:30;;;;;;;11.37;9.23;;;0.60;99.90;;;;;;5064575;28;20922;-58
2022/02/13 06:47:55;;;;;;;17.33;9.00;;;0.60;99.90;;;;;;5049907;28;20250;-58
2022/02/13 06:50:21;;;;;;;12.70;9.60;;;0.60;99.90;;;;;;5051001;28;20186;-60
2022/02/13 06:52:47;;;;;;;14.10;9.27;;;0.60;99.90;;;;;;5051676;28;20264;-57
2022/02/13 06:55:13;;;;;;;15.47;9.87;;;0.60;99.90;;;;;;5051646;28;20659;-59
2022/02/13 06:57:46;;;;;;;12.63;9.27;;;0.60;99.90;;;;;;5038747;28;20206;-59
2022/02/13 07:00:15;;;;;;;12.63;9.57;;;0.70;99.90;;;;;;5050684;28;20202;-57
2022/02/13 07:02:42;;;;;;;13.45;8.93;;;0.70;99.90;;;;;;5051641;28;20185;-58
2022/02/13 07:05:08;;;;;;;12.18;8.95;;;0.70;99.90;;;;;;5052284;28;20182;-59
2022/02/13 07:07:34;;;;;;;13.50;9.80;;;0.70;99.90;;;;;;5051768;28;20265;-54
2022/02/13 07:09:59;;;;;;;13.83;9.40;;;0.80;99.90;;;;;;5051039;28;20277;-59
2022/02/13 07:12:25;;;;;;;12.87;9.53;;;0.80;99.90;;;;;;5051847;28;20182;-58
2022/02/13 07:14:50;;;;;;;13.13;9.00;;;0.90;99.90;;;;;;5050476;28;20178;-60
2022/02/13 07:17:16;;;;;;;13.50;9.17;;;0.90;99.90;;;;;;5051706;28;20175;-58
2022/02/13 07:19:41;;;;;;;13.23;9.13;;;0.90;99.90;;;;;;5053818;28;20293;-58
2022/02/13 07:22:07;;;;;;;13.40;9.60;;;1.00;99.90;;;;;;5068886;28;20181;-56
2022/02/13 07:24:34;;;;;;;13.43;9.53;;;1.00;99.90;;;;;;5049020;28;20185;-51
2022/02/13 07:27:00;;;;;;;12.40;9.27;;;1.00;99.90;;;;;;5052809;28;20228;-59
2022/02/13 07:29:26;;;;;;;15.63;10.52;;;1.10;99.90;;;;;;5050425;28;20703;-58
2022/02/13 07:31:51;;;;;;;13.63;10.27;;;1.10;99.90;;;;;;5058213;28;20186;-59
2022/02/13 07:34:17;;;;;;;12.30;9.30;;;1.30;99.90;;;;;;5054962;28;20256;-59
2022/02/13 07:36:42;;;;;;;14.60;9.90;;;1.30;99.90;;;;;;5051497;28;20584;-54
2022/02/13 07:39:08;;;;;;;12.53;9.30;;;1.30;99.90;;;;;;5071079;28;20209;-53
2022/02/13 07:41:34;;;;;;;13.50;10.30;;;1.40;99.90;;;;;;5068646;28;20178;-57
2022/02/13 07:43:59;;;;;;;13.27;10.33;;;1.40;99.90;;;;;;5071222;28;20296;-58
2022/02/13 07:46:25;;;;;;;14.13;9.70;;;1.40;99.90;;;;;;5056256;28;20179;-59
2022/02/13 07:48:50;;;;;;;16.30;11.10;;;1.50;99.90;;;;;;5050714;28;20222;-58
2022/02/13 07:51:16;;;;;;;14.20;10.80;;;1.60;99.90;;;;;;5044238;28;20209;-56
2022/02/13 07:53:45;;;;;;;17.70;12.20;;;1.70;99.90;;;;;;5049743;28;20291;-57
2022/02/13 07:56:10;;;;;;;15.10;10.80;;;1.70;99.90;;;;;;5049223;28;20269;-59
2022/02/13 07:58:36;;;;;;;12.60;10.03;;;1.80;99.90;;;;;;5051759;28;20297;-59
2022/02/13 08:01:04;;;;;;;14.10;10.10;;;1.90;99.90;;;;;;5052513;28;20429;-59
2022/02/13 08:03:30;;;;;;;14.52;9.63;;;2.00;99.90;;;;;;5050314;28;20254;-58
2022/02/13 08:05:55;;;;;;;16.87;11.17;;;2.20;99.90;;;;;;5049732;28;20269;-59
2022/02/13 08:08:21;;;;;;;16.00;10.03;;;2.40;99.90;;;;;;5051361;28;20182;-59
2022/02/13 08:10:47;;;;;;;14.87;10.70;;;2.70;99.90;;;;;;5048741;28;20232;-56
2022/02/13 08:13:13;;;;;;;12.67;10.33;;;3.10;99.90;;;;;;5048794;28;20170;-59
2022/02/13 08:15:39;;;;;;;12.45;9.75;;;3.40;99.90;;;;;;5049315;28;20838;-54
2022/02/13 08:18:08;;;;;;;15.57;11.82;;;3.90;99.90;;;;;;5045039;28;20206;-59
2022/02/13 08:20:34;;;;;;;17.70;11.30;;;4.40;99.90;;;;;;5048421;28;20633;-58
2022/02/13 08:22:59;;;;;;;15.07;11.20;;;4.90;99.90;;;;;;5048732;28;20194;-56
2022/02/13 08:25:25;;;;;;;13.47;10.90;;;5.40;98.60;;;;;;5048854;28;20608;-59
2022/02/13 08:27:50;;;;;;;15.37;11.70;;;5.90;96.00;;;;;;5047048;28;20183;-58
2022/02/13 08:30:16;;;;;;;15.47;12.30;;;6.60;94.00;;;;;;5049109;28;20194;-59
2022/02/13 08:32:41;;;;;;;13.40;11.50;;;7.00;91.70;;;;;;5057007;28;20181;-57
2022/02/13 08:35:07;;;;;;;12.87;11.13;;;7.40;88.60;;;;;;5061288;28;20261;-59
2022/02/13 08:37:33;;;;;;;11.93;10.70;;;7.70;86.50;;;;;;5048280;28;20359;-59
2022/02/13 08:39:58;;;;;;;12.57;10.90;;;8.00;82.30;;;;;;5047398;28;20465;-56
2022/02/13 08:42:24;;;;;;;12.57;10.97;;;8.10;81.10;;;;;;5048990;28;20178;-58
2022/02/13 08:44:49;;;;;;;11.97;10.73;;;8.10;79.40;;;;;;5048416;28;20188;-59
2022/02/13 08:47:15;;;;;;;14.00;12.50;;;8.50;76.80;;;;;;5054093;28;20305;-58
2022/02/13 08:49:41;;;;;;;13.57;12.20;;;8.80;74.60;;;;;;5057599;28;20277;-60
2022/02/13 08:52:08;;;;;;;12.83;11.30;;;9.00;72.30;;;;;;5048878;28;20238;-57
2022/02/13 08:54:34;;;;;;;13.70;11.50;;;8.70;71.20;;;;;;5058231;28;20473;-58
2022/02/13 08:57:00;;;;;;;14.27;12.13;;;8.70;71.20;;;;;;5050631;28;20441;-58
2022/02/13 08:59:25;;;;;;;13.37;12.07;;;8.70;70.60;;;;;;5047714;28;20218;-59
2022/02/13 09:01:51;;;;;;;14.53;12.03;;;8.70;69.30;;;;;;5045652;28;20243;-60
2022/02/13 09:04:17;;;;;;;13.50;12.23;;;9.00;70.40;;;;;;5064773;28;20193;-59
2022/02/13 09:06:42;;;;;;;12.80;11.60;;;9.30;67.60;;;;;;5051529;28;20188;-59
2022/02/13 09:09:09;;;;;;;12.20;10.90;;;9.80;65.90;;;;;;5048120;28;20240;-59
2022/02/13 09:11:35;;;;;;;13.07;11.73;;;10.10;63.10;;;;;;5051046;28;20186;-60
2022/02/13 09:14:03;;;;;;;13.33;12.03;;;10.30;61.50;;;;;;5052248;28;20427;-59
2022/02/13 09:16:29;;;;;;;14.13;12.77;;;10.60;60.00;;;;;;5051851;28;20424;-59
2022/02/13 09:18:55;;;;;;;12.23;11.03;;;11.10;58.60;;;;;;5051402;28;21190;-60
2022/02/13 09:21:21;;;;;;;13.07;11.83;;;11.30;57.70;;;;;;5050388;28;20439;-59
2022/02/13 09:23:46;;;;;;;12.77;11.57;;;11.60;58.20;;;;;;5054185;28;20962;-59
2022/02/13 09:26:12;;;;;;;14.60;12.67;;;11.80;56.00;;;;;;5051653;28;20190;-59
2022/02/13 09:28:37;;;;;;;12.80;11.60;;;11.90;55.90;;;;;;5052964;28;20261;-59
2022/02/13 09:31:04;;;;;;;13.27;12.00;;;12.10;53.60;;;;;;5052252;28;20581;-59
2022/02/13 09:33:29;;;;;;;12.27;11.17;;;12.30;52.80;;;;;;5051723;28;20190;-58
2022/02/13 09:35:55;;;;;;;14.07;12.80;;;12.10;51.70;;;;;;5051447;28;20425;-58
2022/02/13 09:38:23;;;;;;;13.50;12.10;;;12.40;52.00;;;;;;5049554;28;20289;-55
2022/02/13 09:40:48;;;;;;;12.57;11.37;;;12.60;51.00;;;;;;5051430;28;20178;-59
2022/02/13 09:43:16;;;;;;;13.73;11.60;;;12.50;49.70;;;;;;5054153;28;20449;-59
2022/02/13 09:45:44;;;;;;;13.00;11.77;;;12.80;49.20;;;;;;5052346;28;20620;-58
2022/02/13 09:48:16;;;;;;;12.63;11.50;;;12.80;50.20;;;;;;5051191;28;20495;-59
2022/02/13 09:50:42;;;;;;;13.40;12.00;;;13.20;49.60;;;;;;5048896;28;20422;-58
2022/02/13 09:53:07;;;;;;;11.87;10.70;;;13.50;49.00;;;;;;5051594;28;20477;-58
2022/02/13 09:55:34;;;;;;;11.97;10.87;;;13.60;47.20;;;;;;5051614;28;20191;-58
2022/02/13 09:58:00;;;;;;;12.77;11.10;;;14.30;45.70;;;;;;5051265;28;20212;-57
2022/02/13 10:01:04;;;;;;;12.17;10.97;;;14.70;44.10;;;;;;5051764;28;20466;-57
2022/02/13 10:03:35;;;;;;;12.17;11.07;;;14.80;44.00;;;;;;5051699;28;20203;-55
2022/02/13 10:06:19;;;;;;;12.07;10.90;;;14.70;43.00;;;;;;5051319;28;20418;-57
2022/02/13 10:08:50;;;;;;;13.20;11.93;;;14.40;43.40;;;;;;5051652;28;20428;-58
2022/02/13 10:11:17;;;;;;;12.40;11.20;;;14.60;44.00;;;;;;5051223;28;20422;-57
2022/02/13 10:14:09;;;;;;;11.90;10.80;;;14.70;42.90;;;;;;5047763;28;20436;-58
2022/02/13 10:16:37;;;;;;;12.00;10.80;;;15.00;43.30;;;;;;5052383;28;20880;-57
2022/02/13 10:19:19;;;;;;;11.73;10.67;;;15.00;42.70;;;;;;5049616;28;20457;-59
2022/02/13 10:21:50;;;;;;;12.97;11.77;;;15.20;41.90;;;;;;5051493;28;20419;-58
2022/02/13 10:24:38;;;;;;;12.43;11.23;;;15.30;41.00;;;;;;5049146;28;20480;-58
2022/02/13 10:27:08;;;;;;;12.73;11.63;;;15.70;41.00;;;;;;5048641;28;20804;-57
2022/02/13 10:29:39;;;;;;;11.30;10.27;;;15.80;39.40;;;;;;5051399;28;20506;-59
2022/02/13 10:32:19;;;;;;;11.60;10.60;;;16.00;39.80;;;;;;5050503;28;20409;-57
2022/02/13 10:35:03;;;;;;;12.00;10.80;;;16.10;39.00;;;;;;5048528;28;20419;-58
2022/02/13 10:37:44;;;;;;;12.07;10.97;;;16.30;37.80;;;;;;5049144;28;20407;-56
2022/02/13 10:40:15;;;;;;;11.13;10.13;;;16.40;38.50;;;;;;5044094;28;20449;-59
2022/02/13 10:42:41;;;;;;;12.03;10.83;;;16.60;37.20;;;;;;5050842;28;20467;-58
2022/02/13 10:45:24;;;;;;;12.50;11.20;;;16.70;37.10;;;;;;5050450;28;20434;-58
2022/02/13 10:48:01;;;;;;;11.20;10.20;;;16.20;37.90;;;;;;5053951;28;20448;-57
2022/02/13 10:50:32;;;;;;;11.33;10.33;;;16.60;38.20;;;;;;5052827;28;20856;-56
2022/02/13 10:52:59;;;;;;;13.00;11.80;;;16.70;36.80;;;;;;5053316;28;20500;-56
2022/02/13 10:55:26;;;;;;;11.23;10.23;;;16.70;36.50;;;;;;5060255;28;20416;-55
2022/02/13 10:57:52;;;;;;;11.70;10.37;;;17.00;35.50;;;;;;5055482;28;20899;-56
2022/02/13 11:00:18;;;;;;;11.50;10.40;;;17.90;35.10;;;;;;5053821;28;20437;-57
2022/02/13 11:02:49;;;;;;;13.07;11.67;;;17.70;33.30;;;;;;5047477;28;20479;-58
2022/02/13 11:05:18;;;;;;;13.43;12.07;;;17.70;34.20;;;;;;5046587;28;20416;-58
2022/02/13 11:07:48;;;;;;;13.33;12.07;;;18.00;34.10;;;;;;5036870;28;21144;-56
2022/02/13 11:10:29;;;;;;;11.73;10.70;;;17.90;32.10;;;;;;5063562;28;20479;-54
2022/02/13 11:12:55;;;;;;;12.33;11.23;;;18.10;33.80;;;;;;5048882;28;20778;-54
2022/02/13 11:15:29;;;;;;;12.13;10.93;;;17.90;32.70;;;;;;5050753;28;20953;-57
2022/02/13 11:18:25;;;;;;;12.50;11.50;;;17.70;34.30;;;;;;5053631;28;20421;-56
2022/02/13 11:20:54;;;;;;;12.40;11.10;;;17.90;33.30;;;;;;5057985;28;20790;-58
2022/02/13 11:23:26;;;;;;;11.00;10.10;;;17.90;32.80;;;;;;5044291;28;20909;-58
2022/02/13 11:26:00;;;;;;;12.30;11.20;;;18.00;31.50;;;;;;5059989;28;20438;-58
2022/02/13 11:28:45;;;;;;;12.63;11.47;;;18.30;32.40;;;;;;5044984;28;20435;-58
2022/02/13 11:31:39;;;;;;;11.60;10.50;;;18.20;32.00;;;;;;5035164;28;20482;-58
2022/02/13 11:34:09;;;;;;;11.80;10.90;;;18.60;31.40;;;;;;5044446;28;20451;-57
2022/02/13 11:36:52;;;;;;;12.80;11.70;;;18.40;30.40;;;;;;5042156;28;20505;-60
2022/02/13 11:39:29;;;;;;;11.43;10.53;;;19.00;30.70;;;;;;5039432;28;20536;-56
2022/02/13 11:41:58;;;;;;;11.17;10.23;;;19.20;29.60;;;;;;5036647;28;20875;-56
2022/02/13 11:44:35;;;;;;;11.40;10.43;;;19.10;30.00;;;;;;5033571;28;20408;-59
2022/02/13 11:47:02;;;;;;;11.70;10.60;;;19.30;29.80;;;;;;5036118;28;20943;-56
2022/02/13 11:49:28;;;;;;;12.10;11.10;;;19.30;29.30;;;;;;5037705;28;20914;-56
2022/02/13 11:51:54;;;;;;;13.87;12.50;;;19.20;29.60;;;;;;5036285;28;20483;-58
2022/02/13 11:54:38;;;;;;;13.30;12.20;;;19.10;28.60;;;;;;5030409;28;20308;-53
2022/02/13 11:57:15;;;;;;;12.37;11.47;;;18.80;29.20;;;;;;5050177;28;20238;-58
2022/02/13 11:59:56;;;;;;;12.20;11.20;;;19.10;29.50;;;;;;5056415;28;20466;-55
2022/02/13 12:02:31;;;;;;;12.47;11.50;;;19.40;28.70;;;;;;5054476;28;20423;-55
2022/02/13 12:05:05;;;;;;;12.17;10.97;;;19.70;29.00;;;;;;5059592;28;20821;-56
2022/02/13 12:07:38;;;;;;;13.00;11.90;;;19.20;28.50;;;;;;5051407;28;21064;-57
2022/02/13 12:10:12;;;;;;;11.20;10.30;;;19.20;28.40;;;;;;5049127;28;20453;-57
2022/02/13 12:12:40;;;;;;;13.50;12.40;;;19.20;29.20;;;;;;5062115;28;20512;-56
2022/02/13 12:15:06;;;;;;;13.73;12.63;;;19.40;29.40;;;;;;5047746;28;20502;-56
2022/02/13 12:17:32;;;;;;;13.40;12.20;;;19.70;28.40;;;;;;5043884;28;20443;-57
2022/02/13 12:20:12;;;;;;;14.50;13.17;;;19.50;28.40;;;;;;5046163;28;20768;-55
2022/02/13 12:22:39;;;;;;;14.13;12.80;;;19.50;28.50;;;;;;5040284;28;20779;-59
2022/02/13 12:25:10;;;;;;;13.03;11.83;;;20.10;28.90;;;;;;5033054;28;20429;-56
2022/02/13 12:27:39;;;;;;;12.00;10.80;;;20.00;28.60;;;;;;5035253;28;20429;-56
2022/02/13 12:30:08;;;;;;;11.33;10.33;;;19.50;28.80;;;;;;5045590;28;20505;-56
2022/02/13 12:32:35;;;;;;;11.07;10.17;;;19.90;28.40;;;;;;5048511;28;20458;-59
2022/02/13 12:35:05;;;;;;;10.40;9.47;;;19.90;28.90;;;;;;5062746;28;21138;-58
2022/02/13 12:37:48;;;;;;;10.67;9.77;;;19.70;27.70;;;;;;5043868;28;20926;-59
2022/02/13 12:40:31;;;;;;;10.27;9.43;;;19.60;28.50;;;;;;5048728;28;20944;-60